MST,Max TemperatureF,Mean TemperatureF,Min TemperatureF,Max Dew PointF,MeanDew PointF,Min DewpointF,Max Humidity, Mean Humidity, Min Humidity, Max Sea Level PressureIn, Mean Sea Level PressureIn, Min Sea Level PressureIn, Max VisibilityMiles, Mean VisibilityMiles, Min VisibilityMiles, Max Wind SpeedMPH, Mean Wind SpeedMPH, Max Gust SpeedMPH,PrecipitationIn, CloudCover, Events, WindDirDegrees
2010-12-1,39,30,21,29,25,19,82,73,63,30.07,30.00,29.94,10,10,10,28,11,32,0.00,6,,257
2010-12-2,42,30,18,34,28,18,100,80,59,30.08,29.92,29.78,10,10,4,17,5,18,0.04,6,Rain-Snow,127
2010-12-3,32,20,7,32,24,7,100,88,75,30.46,30.04,29.77,10,5,0,16,8,20,0.11,7,Fog-Snow,287
2010-12-4,22,13,3,13,7,2,96,88,80,30.53,30.48,30.43,10,10,10,12,5,13,0.00,0,,134
2010-12-5,30,15,-1,8,4,-1,96,77,57,30.51,30.47,30.40,10,10,10,12,6,12,0.00,0,,138
2010-12-6,39,26,12,23,16,6,92,73,54,30.37,30.25,30.14,10,10,10,12,5,13,0.00,0,,144
2010-12-7,40,27,13,25,20,15,92,84,75,30.37,30.30,30.17,10,10,10,13,4,14,0.00,0,,141
2010-12-8,45,32,19,29,26,16,75,65,55,30.18,29.91,29.82,10,10,10,35,18,41,0.00,0,,222
2010-12-9,41,34,27,27,24,21,81,68,54,29.97,29.88,29.77,10,10,10,33,16,38,0.00,1,,224
2010-12-10,38,23,7,26,12,3,100,80,59,30.28,29.87,29.58,10,6,0,32,13,40,T,7,Fog-Snow,285
2010-12-11,31,20,8,21,15,5,91,75,58,30.38,30.34,30.28,10,10,9,12,5,13,0.00,5,,143
2010-12-12,42,33,23,32,27,16,100,84,67,30.23,30.03,29.89,10,6,1,28,14,30,0.12,6,Rain-Snow,137
2010-12-13,43,37,31,32,31,26,82,76,70,29.93,29.87,29.83,10,10,10,25,16,31,T,1,,230
2010-12-14,44,37,29,31,27,19,82,69,56,29.80,29.55,29.37,10,10,10,29,11,35,0.01,3,Rain,186
2010-12-15,35,27,19,19,16,13,77,62,47,29.98,29.79,29.59,10,10,10,23,13,29,0.00,0,,243
2010-12-16,30,21,11,16,12,8,88,71,53,30.28,30.17,30.01,10,10,10,13,4,13,0.00,1,,219
2010-12-17,19,13,6,14,8,3,96,87,77,30.33,30.20,30.04,10,5,0,10,3,13,T,7,Fog-Snow,34
2010-12-18,15,12,9,10,9,6,92,84,76,30.15,29.91,29.72,10,8,2,12,5,14,T,8,Snow,77
2010-12-19,14,9,4,10,7,1,100,88,76,29.90,29.66,29.38,10,6,0,18,6,23,T,7,Fog-Snow,67
2010-12-20,13,7,0,7,4,1,96,83,70,30.02,29.64,29.38,10,4,0,16,7,21,0.08,6,Fog-Snow,194
2010-12-21,28,17,5,19,11,5,92,73,53,30.21,30.13,30.02,10,10,10,12,6,12,0.00,0,,131
2010-12-22,32,20,8,18,13,2,84,74,63,30.17,30.08,29.99,10,10,10,13,4,14,0.00,0,,143
2010-12-23,32,22,11,23,17,12,100,85,69,30.31,30.16,29.97,10,10,10,10,4,12,0.00,2,,144
2010-12-24,39,25,11,20,15,11,88,63,37,30.39,30.32,30.24,10,10,10,14,8,18,0.00,0,,127
2010-12-25,45,34,22,24,18,13,68,57,45,30.22,30.05,29.82,10,10,10,12,6,13,0.00,0,,132
2010-12-26,45,35,24,28,22,13,75,58,40,29.82,29.74,29.68,10,10,10,33,13,37,0.00,1,,220
2010-12-27,35,27,18,24,16,11,69,62,54,29.99,29.93,29.83,10,10,10,37,21,43,0.00,0,,248
2010-12-28,38,29,20,29,23,13,75,67,58,29.91,29.60,29.34,10,10,10,31,19,37,0.00,2,,227
2010-12-29,35,20,4,31,17,0,100,88,75,29.79,29.28,29.08,10,2,0,22,8,24,0.32,8,Fog-Snow,51
2010-12-30,4,-2,-9,1,-5,-12,95,87,79,30.25,29.90,29.62,10,3,1,13,9,15,0.03,8,Snow,280
2010-12-31,5,-4,-13,-4,-9,-15,95,85,75,30.27,30.11,29.81,10,7,2,9,3,10,0.01,4,Snow,176